sensor_id;sensor_type;location;lat;lon;timestamp;temperature;humidity
6307;DHT22;3186;54.062;9.962;2022-08-24T00:00:56;21.90;22.10
6307;DHT22;3186;54.062;9.962;2022-08-24T00:03:23;21.90;21.70
6307;DHT22;3186;54.062;9.962;2022-08-24T00:05:49;21.90;22.00
6307;DHT22;3186;54.062;9.962;2022-08-24T00:08:16;21.90;21.70
6307;DHT22;3186;54.062;9.962;2022-08-24T00:10:43;21.90;22.30
6307;DHT22;3186;54.062;9.962;2022-08-24T00:13:09;21.90;22.50
6307;DHT22;3186;54.062;9.962;2022-08-24T00:15:36;21.90;22.50
6307;DHT22;3186;54.062;9.962;2022-08-24T00:18:02;21.90;22.70
6307;DHT22;3186;54.062;9.962;2022-08-24T00:20:28;21.80;23.10
6307;DHT22;3186;54.062;9.962;2022-08-24T00:22:54;21.80;22.70
6307;DHT22;3186;54.062;9.962;2022-08-24T00:25:20;21.80;23.30
6307;DHT22;3186;54.062;9.962;2022-08-24T00:27:46;21.80;23.20
6307;DHT22;3186;54.062;9.962;2022-08-24T00:30:15;21.70;23.40
6307;DHT22;3186;54.062;9.962;2022-08-24T00:32:42;21.50;25.60
6307;DHT22;3186;54.062;9.962;2022-08-24T00:35:09;21.60;25.50
6307;DHT22;3186;54.062;9.962;2022-08-24T00:37:36;21.60;25.50
6307;DHT22;3186;54.062;9.962;2022-08-24T00:40:06;21.60;25.10
6307;DHT22;3186;54.062;9.962;2022-08-24T00:42:33;21.60;24.60
6307;DHT22;3186;54.062;9.962;2022-08-24T00:44:59;21.60;24.80
6307;DHT22;3186;54.062;9.962;2022-08-24T00:47:33;21.60;25.30
6307;DHT22;3186;54.062;9.962;2022-08-24T00:50:07;21.50;25.60
6307;DHT22;3186;54.062;9.962;2022-08-24T00:52:38;21.50;25.20
6307;DHT22;3186;54.062;9.962;2022-08-24T00:55:25;21.40;26.10
6307;DHT22;3186;54.062;9.962;2022-08-24T00:57:54;21.50;26.30
6307;DHT22;3186;54.062;9.962;2022-08-24T01:00:26;21.50;26.60
6307;DHT22;3186;54.062;9.962;2022-08-24T01:02:55;21.50;25.30
6307;DHT22;3186;54.062;9.962;2022-08-24T01:05:23;21.40;26.20
6307;DHT22;3186;54.062;9.962;2022-08-24T01:07:49;21.40;26.20
6307;DHT22;3186;54.062;9.962;2022-08-24T01:10:21;21.30;27.30
6307;DHT22;3186;54.062;9.962;2022-08-24T01:12:53;21.30;27.80
6307;DHT22;3186;54.062;9.962;2022-08-24T01:15:20;21.20;28.70
6307;DHT22;3186;54.062;9.962;2022-08-24T01:17:47;21.30;28.30
6307;DHT22;3186;54.062;9.962;2022-08-24T01:20:33;21.30;28.70
6307;DHT22;3186;54.062;9.962;2022-08-24T01:25:33;21.20;28.70
6307;DHT22;3186;54.062;9.962;2022-08-24T01:28:04;21.10;31.50
6307;DHT22;3186;54.062;9.962;2022-08-24T01:30:32;21.10;30.10
6307;DHT22;3186;54.062;9.962;2022-08-24T01:33:01;21.00;33.80
6307;DHT22;3186;54.062;9.962;2022-08-24T01:35:28;21.00;33.70
6307;DHT22;3186;54.062;9.962;2022-08-24T01:37:56;21.00;32.50
6307;DHT22;3186;54.062;9.962;2022-08-24T01:40:32;21.10;31.70
6307;DHT22;3186;54.062;9.962;2022-08-24T01:42:59;21.00;31.40
6307;DHT22;3186;54.062;9.962;2022-08-24T01:45:25;21.10;31.00
6307;DHT22;3186;54.062;9.962;2022-08-24T01:47:51;21.10;31.50
6307;DHT22;3186;54.062;9.962;2022-08-24T01:50:17;21.10;32.00
6307;DHT22;3186;54.062;9.962;2022-08-24T01:52:43;21.00;32.00
6307;DHT22;3186;54.062;9.962;2022-08-24T01:55:11;21.00;32.40
6307;DHT22;3186;54.062;9.962;2022-08-24T01:57:38;21.00;31.60
6307;DHT22;3186;54.062;9.962;2022-08-24T02:00:06;21.00;32.40
6307;DHT22;3186;54.062;9.962;2022-08-24T02:02:40;21.00;32.70
6307;DHT22;3186;54.062;9.962;2022-08-24T02:05:08;21.00;33.40
6307;DHT22;3186;54.062;9.962;2022-08-24T02:07:34;21.00;33.90
6307;DHT22;3186;54.062;9.962;2022-08-24T02:10:00;20.90;33.40
6307;DHT22;3186;54.062;9.962;2022-08-24T02:12:27;20.90;37.30
6307;DHT22;3186;54.062;9.962;2022-08-24T02:14:53;20.90;37.10
6307;DHT22;3186;54.062;9.962;2022-08-24T02:17:19;20.80;37.30
6307;DHT22;3186;54.062;9.962;2022-08-24T02:19:45;20.80;37.10
6307;DHT22;3186;54.062;9.962;2022-08-24T02:22:12;20.80;37.20
6307;DHT22;3186;54.062;9.962;2022-08-24T02:24:39;20.80;37.20
6307;DHT22;3186;54.062;9.962;2022-08-24T02:27:05;20.80;37.30
6307;DHT22;3186;54.062;9.962;2022-08-24T02:29:33;20.80;37.30
6307;DHT22;3186;54.062;9.962;2022-08-24T02:31:58;20.70;37.50
6307;DHT22;3186;54.062;9.962;2022-08-24T02:34:24;20.70;38.20
6307;DHT22;3186;54.062;9.962;2022-08-24T02:36:50;20.70;38.20
6307;DHT22;3186;54.062;9.962;2022-08-24T02:39:19;20.70;40.20
6307;DHT22;3186;54.062;9.962;2022-08-24T02:41:47;20.60;39.80
6307;DHT22;3186;54.062;9.962;2022-08-24T02:44:13;20.70;40.40
6307;DHT22;3186;54.062;9.962;2022-08-24T02:46:40;20.60;41.10
6307;DHT22;3186;54.062;9.962;2022-08-24T02:49:08;20.50;41.70
6307;DHT22;3186;54.062;9.962;2022-08-24T02:51:34;20.50;42.10
6307;DHT22;3186;54.062;9.962;2022-08-24T02:54:01;20.50;42.40
6307;DHT22;3186;54.062;9.962;2022-08-24T02:56:30;20.50;42.40
6307;DHT22;3186;54.062;9.962;2022-08-24T02:58:57;20.50;42.70
6307;DHT22;3186;54.062;9.962;2022-08-24T03:01:25;20.40;44.10
6307;DHT22;3186;54.062;9.962;2022-08-24T03:03:52;20.40;44.30
6307;DHT22;3186;54.062;9.962;2022-08-24T03:06:18;20.40;44.90
6307;DHT22;3186;54.062;9.962;2022-08-24T03:08:44;20.40;45.70
6307;DHT22;3186;54.062;9.962;2022-08-24T03:11:12;20.40;46.70
6307;DHT22;3186;54.062;9.962;2022-08-24T03:13:38;20.30;46.60
6307;DHT22;3186;54.062;9.962;2022-08-24T03:16:05;20.30;47.20
6307;DHT22;3186;54.062;9.962;2022-08-24T03:18:32;20.30;47.80
6307;DHT22;3186;54.062;9.962;2022-08-24T03:21:00;20.20;48.30
6307;DHT22;3186;54.062;9.962;2022-08-24T03:23:28;20.20;49.90
6307;DHT22;3186;54.062;9.962;2022-08-24T03:25:55;20.20;49.30
6307;DHT22;3186;54.062;9.962;2022-08-24T03:28:22;20.20;50.90
6307;DHT22;3186;54.062;9.962;2022-08-24T03:30:48;20.20;50.90
6307;DHT22;3186;54.062;9.962;2022-08-24T03:33:16;20.10;51.40
6307;DHT22;3186;54.062;9.962;2022-08-24T03:35:43;20.10;52.60
6307;DHT22;3186;54.062;9.962;2022-08-24T03:38:10;20.10;53.50
6307;DHT22;3186;54.062;9.962;2022-08-24T03:40:39;20.10;52.60
6307;DHT22;3186;54.062;9.962;2022-08-24T03:43:05;20.00;52.40
6307;DHT22;3186;54.062;9.962;2022-08-24T03:45:34;20.00;54.40
6307;DHT22;3186;54.062;9.962;2022-08-24T03:48:00;19.80;55.50
6307;DHT22;3186;54.062;9.962;2022-08-24T03:50:27;19.90;56.20
6307;DHT22;3186;54.062;9.962;2022-08-24T03:52:53;19.90;56.80
6307;DHT22;3186;54.062;9.962;2022-08-24T03:55:20;19.90;58.00
6307;DHT22;3186;54.062;9.962;2022-08-24T03:57:46;19.90;58.40
6307;DHT22;3186;54.062;9.962;2022-08-24T04:00:13;19.90;60.50
6307;DHT22;3186;54.062;9.962;2022-08-24T04:02:48;19.80;59.90
6307;DHT22;3186;54.062;9.962;2022-08-24T04:05:18;19.80;61.30
6307;DHT22;3186;54.062;9.962;2022-08-24T04:07:45;19.80;59.90
6307;DHT22;3186;54.062;9.962;2022-08-24T04:10:11;19.80;60.90
6307;DHT22;3186;54.062;9.962;2022-08-24T04:12:39;19.80;61.60
6307;DHT22;3186;54.062;9.962;2022-08-24T04:15:06;19.70;61.70
6307;DHT22;3186;54.062;9.962;2022-08-24T04:17:32;19.70;61.80
6307;DHT22;3186;54.062;9.962;2022-08-24T04:19:59;19.70;64.40
6307;DHT22;3186;54.062;9.962;2022-08-24T04:22:33;19.70;65.50
6307;DHT22;3186;54.062;9.962;2022-08-24T04:24:59;19.60;64.20
6307;DHT22;3186;54.062;9.962;2022-08-24T04:27:27;19.60;66.80
6307;DHT22;3186;54.062;9.962;2022-08-24T04:29:52;19.50;69.50
6307;DHT22;3186;54.062;9.962;2022-08-24T04:32:19;19.50;70.60
6307;DHT22;3186;54.062;9.962;2022-08-24T04:34:45;19.50;69.70
6307;DHT22;3186;54.062;9.962;2022-08-24T04:37:12;19.50;70.90
6307;DHT22;3186;54.062;9.962;2022-08-24T04:39:39;19.50;73.30
6307;DHT22;3186;54.062;9.962;2022-08-24T04:42:15;19.50;73.00
6307;DHT22;3186;54.062;9.962;2022-08-24T04:44:43;19.50;73.10
6307;DHT22;3186;54.062;9.962;2022-08-24T04:47:11;19.50;76.30
6307;DHT22;3186;54.062;9.962;2022-08-24T04:49:38;19.40;74.60
6307;DHT22;3186;54.062;9.962;2022-08-24T04:52:04;19.40;79.70
6307;DHT22;3186;54.062;9.962;2022-08-24T04:54:33;19.40;77.80
6307;DHT22;3186;54.062;9.962;2022-08-24T04:57:07;19.30;80.40
6307;DHT22;3186;54.062;9.962;2022-08-24T04:59:34;19.30;80.90
6307;DHT22;3186;54.062;9.962;2022-08-24T05:02:00;19.30;81.80
6307;DHT22;3186;54.062;9.962;2022-08-24T05:04:26;19.30;91.00
6307;DHT22;3186;54.062;9.962;2022-08-24T05:06:51;19.30;89.90
6307;DHT22;3186;54.062;9.962;2022-08-24T05:09:19;19.10;99.90
6307;DHT22;3186;54.062;9.962;2022-08-24T05:11:44;19.20;99.90
6307;DHT22;3186;54.062;9.962;2022-08-24T05:14:11;19.20;95.00
6307;DHT22;3186;54.062;9.962;2022-08-24T05:16:38;19.20;94.20
6307;DHT22;3186;54.062;9.962;2022-08-24T05:19:04;19.20;96.50
6307;DHT22;3186;54.062;9.962;2022-08-24T05:21:32;19.20;95.40
6307;DHT22;3186;54.062;9.962;2022-08-24T05:23:58;19.20;98.80
6307;DHT22;3186;54.062;9.962;2022-08-24T05:26:28;19.00;99.90
6307;DHT22;3186;54.062;9.962;2022-08-24T05:28:56;19.00;99.90
6307;DHT22;3186;54.062;9.962;2022-08-24T05:31:26;19.10;99.90
6307;DHT22;3186;54.062;9.962;2022-08-24T05:33:54;19.10;99.90
6307;DHT22;3186;54.062;9.962;2022-08-24T05:36:33;19.20;99.90
6307;DHT22;3186;54.062;9.962;2022-08-24T05:39:01;19.20;99.90
6307;DHT22;3186;54.062;9.962;2022-08-24T05:41:30;19.20;99.90
6307;DHT22;3186;54.062;9.962;2022-08-24T05:44:07;19.20;99.90
6307;DHT22;3186;54.062;9.962;2022-08-24T05:46:33;19.20;99.90
6307;DHT22;3186;54.062;9.962;2022-08-24T05:49:01;19.20;99.90
6307;DHT22;3186;54.062;9.962;2022-08-24T05:51:32;19.20;99.90
6307;DHT22;3186;54.062;9.962;2022-08-24T05:54:05;19.20;99.90
6307;DHT22;3186;54.062;9.962;2022-08-24T05:56:43;19.20;99.90
6307;DHT22;3186;54.062;9.962;2022-08-24T05:59:09;19.20;99.90
6307;DHT22;3186;54.062;9.962;2022-08-24T06:01:36;19.20;99.90
6307;DHT22;3186;54.062;9.962;2022-08-24T06:04:03;19.30;99.90
6307;DHT22;3186;54.062;9.962;2022-08-24T06:06:30;19.30;99.90
6307;DHT22;3186;54.062;9.962;2022-08-24T06:08:58;19.30;99.90
6307;DHT22;3186;54.062;9.962;2022-08-24T06:13:58;19.40;99.90
6307;DHT22;3186;54.062;9.962;2022-08-24T06:16:28;19.40;99.90
6307;DHT22;3186;54.062;9.962;2022-08-24T06:18:53;19.50;99.90
6307;DHT22;3186;54.062;9.962;2022-08-24T06:21:25;19.50;99.90
6307;DHT22;3186;54.062;9.962;2022-08-24T06:23:52;19.60;99.90
6307;DHT22;3186;54.062;9.962;2022-08-24T06:26:20;19.70;99.90
6307;DHT22;3186;54.062;9.962;2022-08-24T06:29:05;19.70;99.90
6307;DHT22;3186;54.062;9.962;2022-08-24T06:31:40;19.70;99.90
6307;DHT22;3186;54.062;9.962;2022-08-24T06:34:10;19.90;99.90
6307;DHT22;3186;54.062;9.962;2022-08-24T06:36:36;19.90;99.90
6307;DHT22;3186;54.062;9.962;2022-08-24T06:39:03;20.00;99.90
6307;DHT22;3186;54.062;9.962;2022-08-24T06:41:29;20.00;99.90
6307;DHT22;3186;54.062;9.962;2022-08-24T06:43:55;20.00;99.90
6307;DHT22;3186;54.062;9.962;2022-08-24T06:46:26;20.10;99.90
6307;DHT22;3186;54.062;9.962;2022-08-24T06:48:55;20.20;99.90
6307;DHT22;3186;54.062;9.962;2022-08-24T06:51:22;20.20;99.90
6307;DHT22;3186;54.062;9.962;2022-08-24T06:53:49;20.40;99.90
6307;DHT22;3186;54.062;9.962;2022-08-24T06:56:17;20.40;99.90
6307;DHT22;3186;54.062;9.962;2022-08-24T06:58:44;20.60;99.90
6307;DHT22;3186;54.062;9.962;2022-08-24T07:01:21;20.80;99.90
6307;DHT22;3186;54.062;9.962;2022-08-24T07:03:48;20.90;99.90
6307;DHT22;3186;54.062;9.962;2022-08-24T07:06:29;21.10;99.90
6307;DHT22;3186;54.062;9.962;2022-08-24T07:08:58;21.10;99.90
6307;DHT22;3186;54.062;9.962;2022-08-24T07:11:25;21.20;99.90
6307;DHT22;3186;54.062;9.962;2022-08-24T07:13:52;21.40;99.90
6307;DHT22;3186;54.062;9.962;2022-08-24T07:16:19;21.60;99.90
6307;DHT22;3186;54.062;9.962;2022-08-24T07:18:49;21.80;99.90
6307;DHT22;3186;54.062;9.962;2022-08-24T07:21:18;21.90;99.90
6307;DHT22;3186;54.062;9.962;2022-08-24T07:23:53;21.90;99.90
6307;DHT22;3186;54.062;9.962;2022-08-24T07:26:21;22.00;99.90
6307;DHT22;3186;54.062;9.962;2022-08-24T07:28:55;22.20;99.90
6307;DHT22;3186;54.062;9.962;2022-08-24T07:31:32;22.20;99.90
6307;DHT22;3186;54.062;9.962;2022-08-24T07:34:08;22.20;99.90
6307;DHT22;3186;54.062;9.962;2022-08-24T07:36:35;22.40;99.90
6307;DHT22;3186;54.062;9.962;2022-08-24T07:39:03;22.40;99.90
6307;DHT22;3186;54.062;9.962;2022-08-24T07:41:30;22.80;99.90
6307;DHT22;3186;54.062;9.962;2022-08-24T07:43:57;22.90;99.90
6307;DHT22;3186;54.062;9.962;2022-08-24T07:46:23;22.70;99.90
6307;DHT22;3186;54.062;9.962;2022-08-24T07:48:51;23.00;99.90
6307;DHT22;3186;54.062;9.962;2022-08-24T07:51:17;23.60;99.90
6307;DHT22;3186;54.062;9.962;2022-08-24T07:53:44;23.80;99.90
6307;DHT22;3186;54.062;9.962;2022-08-24T07:56:12;24.00;99.90
6307;DHT22;3186;54.062;9.962;2022-08-24T07:58:42;24.10;99.90
6307;DHT22;3186;54.062;9.962;2022-08-24T08:01:09;24.20;99.90
6307;DHT22;3186;54.062;9.962;2022-08-24T08:03:35;24.10;99.90
6307;DHT22;3186;54.062;9.962;2022-08-24T08:06:07;24.10;99.90
6307;DHT22;3186;54.062;9.962;2022-08-24T08:08:36;24.10;99.90
6307;DHT22;3186;54.062;9.962;2022-08-24T08:11:03;24.10;99.90
6307;DHT22;3186;54.062;9.962;2022-08-24T08:13:30;24.80;96.00
6307;DHT22;3186;54.062;9.962;2022-08-24T08:15:59;24.90;95.20
6307;DHT22;3186;54.062;9.962;2022-08-24T08:18:25;24.80;90.00
6307;DHT22;3186;54.062;9.962;2022-08-24T08:20:53;24.90;90.80
6307;DHT22;3186;54.062;9.962;2022-08-24T08:23:19;25.20;85.20
6307;DHT22;3186;54.062;9.962;2022-08-24T08:26:19;25.20;75.40
6307;DHT22;3186;54.062;9.962;2022-08-24T08:28:57;25.30;83.60
6307;DHT22;3186;54.062;9.962;2022-08-24T08:31:23;25.50;75.10
6307;DHT22;3186;54.062;9.962;2022-08-24T08:33:49;25.50;71.20
6307;DHT22;3186;54.062;9.962;2022-08-24T08:36:16;25.90;70.50
6307;DHT22;3186;54.062;9.962;2022-08-24T08:38:48;26.40;70.10
6307;DHT22;3186;54.062;9.962;2022-08-24T08:44:16;26.60;59.70
6307;DHT22;3186;54.062;9.962;2022-08-24T08:58:16;26.80;43.30
6307;DHT22;3186;54.062;9.962;2022-08-24T09:01:02;26.90;40.70
6307;DHT22;3186;54.062;9.962;2022-08-24T09:12:09;27.70;38.80
6307;DHT22;3186;54.062;9.962;2022-08-24T09:20:22;28.50;21.80
6307;DHT22;3186;54.062;9.962;2022-08-24T09:23:07;28.60;25.50
6307;DHT22;3186;54.062;9.962;2022-08-24T09:26:03;28.80;21.80
6307;DHT22;3186;54.062;9.962;2022-08-24T09:48:34;30.00;7.90
6307;DHT22;3186;54.062;9.962;2022-08-24T09:56:26;30.50;7.60
6307;DHT22;3186;54.062;9.962;2022-08-24T10:01:41;30.20;12.80
6307;DHT22;3186;54.062;9.962;2022-08-24T10:09:47;30.80;3.40
6307;DHT22;3186;54.062;9.962;2022-08-24T10:15:05;30.80;1.00
6307;DHT22;3186;54.062;9.962;2022-08-24T10:31:24;31.80;1.00
6307;DHT22;3186;54.062;9.962;2022-08-24T10:44:48;32.40;1.00
6307;DHT22;3186;54.062;9.962;2022-08-24T10:47:34;32.60;1.00
6307;DHT22;3186;54.062;9.962;2022-08-24T10:53:23;33.00;1.00
6307;DHT22;3186;54.062;9.962;2022-08-24T10:58:41;32.50;1.00
6307;DHT22;3186;54.062;9.962;2022-08-24T11:03:54;33.10;1.00
6307;DHT22;3186;54.062;9.962;2022-08-24T11:06:23;33.50;1.00
6307;DHT22;3186;54.062;9.962;2022-08-24T11:09:05;33.30;1.00
6307;DHT22;3186;54.062;9.962;2022-08-24T11:11:57;33.50;1.00
6307;DHT22;3186;54.062;9.962;2022-08-24T11:14:45;33.60;1.00
6307;DHT22;3186;54.062;9.962;2022-08-24T11:17:15;33.20;1.00
6307;DHT22;3186;54.062;9.962;2022-08-24T11:19:42;33.30;1.00
6307;DHT22;3186;54.062;9.962;2022-08-24T11:22:40;33.60;1.00
6307;DHT22;3186;54.062;9.962;2022-08-24T11:25:33;34.00;1.00
6307;DHT22;3186;54.062;9.962;2022-08-24T11:28:24;33.80;1.00
6307;DHT22;3186;54.062;9.962;2022-08-24T11:30:54;34.20;1.00
6307;DHT22;3186;54.062;9.962;2022-08-24T11:35:48;33.30;1.00
6307;DHT22;3186;54.062;9.962;2022-08-24T11:38:18;33.70;1.00
6307;DHT22;3186;54.062;9.962;2022-08-24T11:41:09;34.00;1.00
6307;DHT22;3186;54.062;9.962;2022-08-24T11:57:39;34.50;1.00
6307;DHT22;3186;54.062;9.962;2022-08-24T12:00:36;34.10;1.00
6307;DHT22;3186;54.062;9.962;2022-08-24T12:05:58;34.20;1.00
6307;DHT22;3186;54.062;9.962;2022-08-24T12:08:48;34.70;1.00
6307;DHT22;3186;54.062;9.962;2022-08-24T12:20:25;34.80;1.00
6307;DHT22;3186;54.062;9.962;2022-08-24T12:23:01;34.80;1.00
6307;DHT22;3186;54.062;9.962;2022-08-24T12:25:32;34.70;1.00
6307;DHT22;3186;54.062;9.962;2022-08-24T12:28:23;34.40;1.00
6307;DHT22;3186;54.062;9.962;2022-08-24T12:30:52;34.80;1.00
6307;DHT22;3186;54.062;9.962;2022-08-24T12:33:24;34.80;1.00
6307;DHT22;3186;54.062;9.962;2022-08-24T12:35:55;35.20;1.00
6307;DHT22;3186;54.062;9.962;2022-08-24T12:38:47;35.00;1.00
6307;DHT22;3186;54.062;9.962;2022-08-24T12:44:14;35.00;1.00
6307;DHT22;3186;54.062;9.962;2022-08-24T12:46:41;35.00;1.00
6307;DHT22;3186;54.062;9.962;2022-08-24T12:49:27;34.70;1.00
6307;DHT22;3186;54.062;9.962;2022-08-24T12:55:09;34.90;1.00
6307;DHT22;3186;54.062;9.962;2022-08-24T13:00:49;35.10;1.00
6307;DHT22;3186;54.062;9.962;2022-08-24T13:03:26;35.20;1.00
6307;DHT22;3186;54.062;9.962;2022-08-24T13:05:58;35.10;1.00
6307;DHT22;3186;54.062;9.962;2022-08-24T13:09:04;35.30;1.00
6307;DHT22;3186;54.062;9.962;2022-08-24T13:11:33;35.10;1.00
6307;DHT22;3186;54.062;9.962;2022-08-24T13:21:45;35.50;1.00
6307;DHT22;3186;54.062;9.962;2022-08-24T13:32:29;35.70;1.00
6307;DHT22;3186;54.062;9.962;2022-08-24T13:34:57;35.90;1.00
6307;DHT22;3186;54.062;9.962;2022-08-24T13:37:25;35.90;1.00
6307;DHT22;3186;54.062;9.962;2022-08-24T13:40:15;35.50;1.00
6307;DHT22;3186;54.062;9.962;2022-08-24T13:43:05;35.20;1.00
6307;DHT22;3186;54.062;9.962;2022-08-24T13:51:18;35.90;1.00
6307;DHT22;3186;54.062;9.962;2022-08-24T13:57:26;35.80;1.00
6307;DHT22;3186;54.062;9.962;2022-08-24T13:59:57;35.90;1.00
6307;DHT22;3186;54.062;9.962;2022-08-24T14:05:49;35.90;1.00
6307;DHT22;3186;54.062;9.962;2022-08-24T14:08:37;35.60;1.00
6307;DHT22;3186;54.062;9.962;2022-08-24T14:16:27;35.20;1.00
6307;DHT22;3186;54.062;9.962;2022-08-24T14:24:42;35.80;1.00
6307;DHT22;3186;54.062;9.962;2022-08-24T14:27:38;35.80;1.00
6307;DHT22;3186;54.062;9.962;2022-08-24T14:49:28;35.00;1.00
6307;DHT22;3186;54.062;9.962;2022-08-24T15:08:06;35.40;1.00
6307;DHT22;3186;54.062;9.962;2022-08-24T15:15:55;35.30;1.00
6307;DHT22;3186;54.062;9.962;2022-08-24T15:18:31;35.40;1.00
6307;DHT22;3186;54.062;9.962;2022-08-24T15:21:35;35.20;1.00
6307;DHT22;3186;54.062;9.962;2022-08-24T15:29:52;35.30;1.00
6307;DHT22;3186;54.062;9.962;2022-08-24T15:32:20;35.40;1.00
6307;DHT22;3186;54.062;9.962;2022-08-24T15:34:53;35.20;1.00
6307;DHT22;3186;54.062;9.962;2022-08-24T15:37:37;35.10;1.00
6307;DHT22;3186;54.062;9.962;2022-08-24T15:40:25;35.00;1.00
6307;DHT22;3186;54.062;9.962;2022-08-24T15:43:01;35.00;1.00
6307;DHT22;3186;54.062;9.962;2022-08-24T15:45:31;34.80;1.00
6307;DHT22;3186;54.062;9.962;2022-08-24T15:47:59;34.70;1.00
6307;DHT22;3186;54.062;9.962;2022-08-24T15:50:32;34.80;1.00
6307;DHT22;3186;54.062;9.962;2022-08-24T15:53:07;35.00;1.00
6307;DHT22;3186;54.062;9.962;2022-08-24T15:55:40;35.00;1.00
6307;DHT22;3186;54.062;9.962;2022-08-24T16:00:49;34.80;1.00
6307;DHT22;3186;54.062;9.962;2022-08-24T16:06:35;34.80;1.00
6307;DHT22;3186;54.062;9.962;2022-08-24T16:12:02;34.80;1.00
6307;DHT22;3186;54.062;9.962;2022-08-24T16:14:33;34.70;1.00
6307;DHT22;3186;54.062;9.962;2022-08-24T16:17:16;34.60;1.00
6307;DHT22;3186;54.062;9.962;2022-08-24T16:19:49;34.60;1.00
6307;DHT22;3186;54.062;9.962;2022-08-24T16:22:35;34.60;1.00
6307;DHT22;3186;54.062;9.962;2022-08-24T16:25:09;34.50;1.00
6307;DHT22;3186;54.062;9.962;2022-08-24T16:27:56;34.40;1.00
6307;DHT22;3186;54.062;9.962;2022-08-24T16:33:04;34.00;1.00
6307;DHT22;3186;54.062;9.962;2022-08-24T16:35:30;34.00;1.00
6307;DHT22;3186;54.062;9.962;2022-08-24T16:37:58;34.00;1.00
6307;DHT22;3186;54.062;9.962;2022-08-24T16:40:25;33.80;1.00
6307;DHT22;3186;54.062;9.962;2022-08-24T16:42:52;33.70;1.00
6307;DHT22;3186;54.062;9.962;2022-08-24T16:45:20;33.60;1.00
6307;DHT22;3186;54.062;9.962;2022-08-24T16:47:47;33.40;1.00
6307;DHT22;3186;54.062;9.962;2022-08-24T16:50:15;33.30;1.00
6307;DHT22;3186;54.062;9.962;2022-08-24T16:52:41;33.30;1.00
6307;DHT22;3186;54.062;9.962;2022-08-24T16:55:08;33.00;1.00
6307;DHT22;3186;54.062;9.962;2022-08-24T16:57:34;32.90;1.00
6307;DHT22;3186;54.062;9.962;2022-08-24T17:00:06;32.80;1.00
6307;DHT22;3186;54.062;9.962;2022-08-24T17:02:32;32.70;1.00
6307;DHT22;3186;54.062;9.962;2022-08-24T17:04:58;32.60;1.00
6307;DHT22;3186;54.062;9.962;2022-08-24T17:07:26;32.40;1.00
6307;DHT22;3186;54.062;9.962;2022-08-24T17:09:54;32.20;1.00
6307;DHT22;3186;54.062;9.962;2022-08-24T17:12:20;32.20;1.00
6307;DHT22;3186;54.062;9.962;2022-08-24T17:14:46;32.00;1.00
6307;DHT22;3186;54.062;9.962;2022-08-24T17:17:16;31.80;1.00
6307;DHT22;3186;54.062;9.962;2022-08-24T17:19:42;31.70;1.00
6307;DHT22;3186;54.062;9.962;2022-08-24T17:22:09;31.60;1.00
6307;DHT22;3186;54.062;9.962;2022-08-24T17:24:35;31.70;1.00
6307;DHT22;3186;54.062;9.962;2022-08-24T17:27:01;31.70;1.00
6307;DHT22;3186;54.062;9.962;2022-08-24T17:29:27;31.70;1.00
6307;DHT22;3186;54.062;9.962;2022-08-24T17:31:54;31.60;1.00
6307;DHT22;3186;54.062;9.962;2022-08-24T17:34:21;31.50;1.00
6307;DHT22;3186;54.062;9.962;2022-08-24T17:36:49;31.40;1.00
6307;DHT22;3186;54.062;9.962;2022-08-24T17:39:17;31.40;1.00
6307;DHT22;3186;54.062;9.962;2022-08-24T17:41:43;31.10;1.00
6307;DHT22;3186;54.062;9.962;2022-08-24T17:44:13;31.00;1.00
6307;DHT22;3186;54.062;9.962;2022-08-24T17:46:40;30.90;1.00
6307;DHT22;3186;54.062;9.962;2022-08-24T17:49:07;30.80;1.00
6307;DHT22;3186;54.062;9.962;2022-08-24T17:51:34;30.80;1.00
6307;DHT22;3186;54.062;9.962;2022-08-24T17:54:00;30.60;1.00
6307;DHT22;3186;54.062;9.962;2022-08-24T17:56:29;30.60;1.00
6307;DHT22;3186;54.062;9.962;2022-08-24T17:58:55;30.60;1.00
6307;DHT22;3186;54.062;9.962;2022-08-24T18:01:40;30.50;1.00
6307;DHT22;3186;54.062;9.962;2022-08-24T18:04:05;30.40;1.00
6307;DHT22;3186;54.062;9.962;2022-08-24T18:06:31;30.20;1.00
6307;DHT22;3186;54.062;9.962;2022-08-24T18:09:02;30.10;1.00
6307;DHT22;3186;54.062;9.962;2022-08-24T18:11:29;30.00;1.00
6307;DHT22;3186;54.062;9.962;2022-08-24T18:13:55;30.00;1.00
6307;DHT22;3186;54.062;9.962;2022-08-24T18:16:23;30.00;1.00
6307;DHT22;3186;54.062;9.962;2022-08-24T18:18:51;29.90;1.00
6307;DHT22;3186;54.062;9.962;2022-08-24T18:21:18;29.70;1.00
6307;DHT22;3186;54.062;9.962;2022-08-24T18:23:45;29.70;1.00
6307;DHT22;3186;54.062;9.962;2022-08-24T18:26:26;29.70;1.00
6307;DHT22;3186;54.062;9.962;2022-08-24T18:28:54;29.60;1.00
6307;DHT22;3186;54.062;9.962;2022-08-24T18:31:23;29.50;1.00
6307;DHT22;3186;54.062;9.962;2022-08-24T18:33:50;29.50;1.00
6307;DHT22;3186;54.062;9.962;2022-08-24T18:36:16;29.40;1.00
6307;DHT22;3186;54.062;9.962;2022-08-24T18:38:42;29.30;1.00
6307;DHT22;3186;54.062;9.962;2022-08-24T18:41:09;29.20;1.00
6307;DHT22;3186;54.062;9.962;2022-08-24T18:43:35;29.10;1.00
6307;DHT22;3186;54.062;9.962;2022-08-24T18:46:02;29.00;1.00
6307;DHT22;3186;54.062;9.962;2022-08-24T18:48:29;29.00;1.00
6307;DHT22;3186;54.062;9.962;2022-08-24T18:50:55;28.90;1.00
6307;DHT22;3186;54.062;9.962;2022-08-24T18:53:24;28.80;1.00
6307;DHT22;3186;54.062;9.962;2022-08-24T18:55:52;28.70;1.00
6307;DHT22;3186;54.062;9.962;2022-08-24T18:58:18;28.70;1.00
6307;DHT22;3186;54.062;9.962;2022-08-24T19:00:44;28.50;2.00
6307;DHT22;3186;54.062;9.962;2022-08-24T19:03:14;28.40;2.00
6307;DHT22;3186;54.062;9.962;2022-08-24T19:05:40;28.20;3.40
6307;DHT22;3186;54.062;9.962;2022-08-24T19:08:08;28.20;3.80
6307;DHT22;3186;54.062;9.962;2022-08-24T19:10:35;28.30;3.50
6307;DHT22;3186;54.062;9.962;2022-08-24T19:13:12;28.20;3.40
6307;DHT22;3186;54.062;9.962;2022-08-24T19:15:47;28.00;4.90
6307;DHT22;3186;54.062;9.962;2022-08-24T19:18:15;28.00;5.80
6307;DHT22;3186;54.062;9.962;2022-08-24T19:20:47;27.70;7.40
6307;DHT22;3186;54.062;9.962;2022-08-24T19:23:18;27.80;7.00
6307;DHT22;3186;54.062;9.962;2022-08-24T19:25:45;27.80;6.50
6307;DHT22;3186;54.062;9.962;2022-08-24T19:28:12;27.80;6.70
6307;DHT22;3186;54.062;9.962;2022-08-24T19:30:39;27.70;7.30
6307;DHT22;3186;54.062;9.962;2022-08-24T19:33:07;27.70;8.50
6307;DHT22;3186;54.062;9.962;2022-08-24T19:35:34;27.60;8.50
6307;DHT22;3186;54.062;9.962;2022-08-24T19:38:00;27.50;8.60
6307;DHT22;3186;54.062;9.962;2022-08-24T19:40:27;27.50;9.60
6307;DHT22;3186;54.062;9.962;2022-08-24T19:42:53;27.30;9.50
6307;DHT22;3186;54.062;9.962;2022-08-24T19:45:22;27.40;10.10
6307;DHT22;3186;54.062;9.962;2022-08-24T19:48:08;27.30;11.30
6307;DHT22;3186;54.062;9.962;2022-08-24T19:50:35;27.20;11.60
6307;DHT22;3186;54.062;9.962;2022-08-24T19:53:01;27.20;12.50
6307;DHT22;3186;54.062;9.962;2022-08-24T19:55:27;27.10;13.90
6307;DHT22;3186;54.062;9.962;2022-08-24T19:58:00;27.00;14.20
6307;DHT22;3186;54.062;9.962;2022-08-24T20:00:41;26.90;14.90
6307;DHT22;3186;54.062;9.962;2022-08-24T20:03:07;26.90;16.80
6307;DHT22;3186;54.062;9.962;2022-08-24T20:05:33;26.80;16.90
6307;DHT22;3186;54.062;9.962;2022-08-24T20:08:00;26.80;16.90
6307;DHT22;3186;54.062;9.962;2022-08-24T20:10:28;26.70;17.60
6307;DHT22;3186;54.062;9.962;2022-08-24T20:12:55;26.60;18.80
6307;DHT22;3186;54.062;9.962;2022-08-24T20:15:21;26.50;20.50
6307;DHT22;3186;54.062;9.962;2022-08-24T20:17:48;26.50;20.40
6307;DHT22;3186;54.062;9.962;2022-08-24T20:20:17;26.40;21.90
6307;DHT22;3186;54.062;9.962;2022-08-24T20:22:45;26.40;23.10
6307;DHT22;3186;54.062;9.962;2022-08-24T20:25:11;26.40;22.80